Ashern, Canada
Current Conditions -  °F | °C
As of 7:00 AM on Saturday 20 Dec 2014 (Local Time) from CYDN Reporting Station
Overcast Overcast  
Wind Chill: 13°   Ceiling: 1200
Heat Index: 21°   Visibility: 9mi
Dew Point: 18°   Wind: 7mph
Humidity: 86%   Direction: 130°SE
Pressure: 29.96"   Gusts: NA
Location:  51.18°N, 98.33°W
Report Text: CYDN 201300Z AUTO 13006KT 9SM OVC012 M06/M08 A2996 RMK SLP166
Loading
Personal Weather Stations






























Interactive Weather Map New forecast layout! Learn more

10-Day Weather Forecast

Advertisements
Track Severe Weather on mobile